createdAt,value
2023-04-26T00:00:09.264Z,96586.30
2023-04-26T00:03:00.970Z,96585.27
2023-04-26T00:05:29.948Z,96585.15
2023-04-26T00:07:58.532Z,96584.70
2023-04-26T00:10:27.172Z,96581.17
2023-04-26T00:12:55.137Z,96580.77
2023-04-26T00:15:23.354Z,96582.40
2023-04-26T00:17:51.727Z,96587.42
2023-04-26T00:20:19.938Z,96591.60
2023-04-26T00:22:47.962Z,96591.31
2023-04-26T00:25:15.863Z,96594.42
2023-04-26T00:27:43.862Z,96592.77
2023-04-26T00:30:13.396Z,96593.95
2023-04-26T00:32:41.465Z,96592.98
2023-04-26T00:35:09.996Z,96591.69
2023-04-26T00:37:38.164Z,96591.80
2023-04-26T00:40:07.853Z,96592.48
2023-04-26T00:42:35.893Z,96596.25
2023-04-26T00:45:04.494Z,96591.08
2023-04-26T00:47:32.560Z,96589.11
2023-04-26T00:50:01.808Z,96591.20
2023-04-26T00:52:29.948Z,96589.52
2023-04-26T00:54:58.082Z,96585.73
2023-04-26T00:57:26.535Z,96586.30
2023-04-26T00:59:54.575Z,96586.69
2023-04-26T01:02:23.098Z,96583.77
2023-04-26T01:04:52.042Z,96581.11
2023-04-26T01:07:19.982Z,96584.17
2023-04-26T01:09:48.047Z,96583.35
2023-04-26T01:12:16.066Z,96584.80
2023-04-26T01:14:44.653Z,96582.73
2023-04-26T01:17:12.617Z,96579.86
2023-04-26T01:19:50.528Z,96581.09
2023-04-26T01:22:18.686Z,96581.23
2023-04-26T01:24:49.035Z,96580.40
2023-04-26T01:27:17.355Z,96583.93
2023-04-26T01:29:46.612Z,96586.02
2023-04-26T01:32:14.623Z,96585.84
2023-04-26T01:34:42.574Z,96578.44
2023-04-26T01:37:12.201Z,96572.89
2023-04-26T01:39:40.147Z,96570.54
2023-04-26T01:42:08.146Z,96568.11
2023-04-26T01:44:36.457Z,96554.46
2023-04-26T01:47:04.940Z,96554.20
2023-04-26T01:49:32.987Z,96566.23
2023-04-26T01:52:01.313Z,96566.69
2023-04-26T01:54:29.407Z,96565.52
2023-04-26T01:56:57.325Z,96559.94
2023-04-26T01:59:25.788Z,96560.00
2023-04-26T02:01:54.342Z,96557.25
2023-04-26T02:04:22.493Z,96551.26
2023-04-26T02:06:50.749Z,96551.86
2023-04-26T02:09:19.224Z,96549.50
2023-04-26T02:11:47.140Z,96549.58
2023-04-26T02:14:15.868Z,96548.69
2023-04-26T02:16:43.935Z,96547.64
2023-04-26T02:19:12.023Z,96545.96
2023-04-26T02:21:55.220Z,96542.11
2023-04-26T02:24:24.774Z,96542.71
2023-04-26T02:26:54.883Z,96542.05
2023-04-26T02:29:36.263Z,96548.07
2023-04-26T02:32:08.435Z,96547.37
2023-04-26T02:34:37.323Z,96548.98
2023-04-26T02:37:05.283Z,96546.00
2023-04-26T02:39:33.929Z,96540.89
2023-04-26T02:42:03.140Z,96540.70
2023-04-26T02:44:31.261Z,96541.22
2023-04-26T02:46:59.323Z,96538.88
2023-04-26T02:49:27.632Z,96537.88
2023-04-26T02:51:56.890Z,96539.61
2023-04-26T02:54:25.128Z,96538.31
2023-04-26T02:56:53.229Z,96535.80
2023-04-26T02:59:22.703Z,96538.97
2023-04-26T03:01:50.811Z,96539.40
2023-04-26T03:04:19.784Z,96537.61
2023-04-26T03:06:47.989Z,96538.14
2023-04-26T03:09:18.382Z,96537.06
2023-04-26T03:11:48.988Z,96537.02
2023-04-26T03:14:19.121Z,96533.27
2023-04-26T03:16:48.594Z,96533.90
2023-04-26T03:19:16.773Z,96535.73
2023-04-26T03:21:45.189Z,96539.15
2023-04-26T03:24:13.256Z,96535.56
2023-04-26T03:26:41.690Z,96539.83
2023-04-26T03:29:09.718Z,96542.05
2023-04-26T03:31:39.191Z,96539.25
2023-04-26T03:34:08.170Z,96536.35
2023-04-26T03:36:36.407Z,96531.38
2023-04-26T03:39:06.367Z,96528.52
2023-04-26T03:41:37.060Z,96531.77
2023-04-26T03:44:06.260Z,96538.73
2023-04-26T03:46:34.263Z,96545.30
2023-04-26T03:49:02.298Z,96550.66
2023-04-26T03:51:31.447Z,96550.36
2023-04-26T03:53:59.658Z,96552.29
2023-04-26T03:56:27.695Z,96556.95
2023-04-26T03:58:55.801Z,96560.28
2023-04-26T04:01:26.269Z,96566.91
2023-04-26T04:03:55.327Z,96561.63
2023-04-26T04:06:23.667Z,96565.86
2023-04-26T04:08:52.327Z,96568.55
2023-04-26T04:11:21.643Z,96572.59
2023-04-26T04:13:49.659Z,96575.38
2023-04-26T04:16:17.896Z,96574.52
2023-04-26T04:18:45.829Z,96574.09
2023-04-26T04:21:13.930Z,96575.83
2023-04-26T04:23:44.505Z,96577.73
2023-04-26T04:26:14.284Z,96579.80
2023-04-26T04:28:42.603Z,96582.81
2023-04-26T04:31:10.706Z,96587.61
2023-04-26T04:33:39.039Z,96593.59
2023-04-26T04:36:10.302Z,96594.16
2023-04-26T04:38:38.787Z,96596.95
2023-04-26T04:41:09.138Z,96597.35
2023-04-26T04:43:38.840Z,96601.38
2023-04-26T04:46:08.141Z,96599.54
2023-04-26T04:48:39.169Z,96602.82
2023-04-26T04:51:08.808Z,96612.92
2023-04-26T04:53:38.645Z,96612.00
2023-04-26T04:56:07.999Z,96613.20
2023-04-26T06:34:38.491Z,96673.88
2023-04-26T06:37:08.448Z,96670.70
2023-04-26T06:39:42.713Z,96667.12
2023-04-26T06:42:14.070Z,96654.20
2023-04-26T06:44:56.173Z,96652.59
2023-04-26T06:47:24.665Z,96648.36
2023-04-26T06:49:53.323Z,96650.50
2023-04-26T06:52:21.837Z,96649.55
2023-04-26T06:54:56.645Z,96650.77
2023-04-26T06:57:27.373Z,96653.59
2023-04-26T06:59:59.320Z,96656.95
2023-04-26T07:02:27.833Z,96653.63
2023-04-26T07:04:56.370Z,96649.61
2023-04-26T07:07:24.865Z,96652.46
2023-04-26T07:10:19.049Z,96648.69
2023-04-26T07:12:48.761Z,96651.55
2023-04-26T07:15:17.133Z,96655.63
2023-04-26T07:17:45.398Z,96658.19
2023-04-26T07:20:16.966Z,96660.50
2023-04-26T07:22:48.336Z,96660.72
2023-04-26T07:25:20.456Z,96663.45
2023-04-26T07:27:48.655Z,96663.85
2023-04-26T07:30:17.095Z,96664.88
2023-04-26T07:32:45.398Z,96664.60
2023-04-26T07:35:18.192Z,96668.73
2023-04-26T07:37:46.244Z,96668.83
2023-04-26T07:40:16.589Z,96671.68
2023-04-26T07:42:44.925Z,96673.08
2023-04-26T07:45:16.241Z,96673.40
2023-04-26T07:47:44.611Z,96676.80
2023-04-26T07:50:13.123Z,96679.02
2023-04-26T07:52:44.309Z,96681.80
2023-04-26T07:55:12.789Z,96685.95
2023-04-26T07:57:42.092Z,96689.63
2023-04-26T08:00:11.098Z,96687.08
2023-04-26T08:02:44.609Z,96682.82
2023-04-26T08:05:15.260Z,96687.22
2023-04-26T08:07:44.200Z,96684.64
2023-04-26T08:10:12.378Z,96686.21
2023-04-26T08:12:40.958Z,96690.13
2023-04-26T08:15:09.851Z,96690.83
2023-04-26T08:17:38.654Z,96691.05
2023-04-26T08:20:09.818Z,96690.95
2023-04-26T08:22:38.998Z,96688.75
2023-04-26T08:25:07.576Z,96690.91
2023-04-26T08:27:37.705Z,96679.01
2023-04-26T08:30:06.979Z,96690.71
2023-04-26T08:32:36.851Z,96690.32
2023-04-26T08:35:06.640Z,96687.95
2023-04-26T08:37:36.205Z,96693.77
2023-04-26T08:40:11.025Z,96689.64
2023-04-26T08:42:45.197Z,96693.52
2023-04-26T08:45:14.107Z,96692.40
2023-04-26T08:48:04.323Z,96689.88
2023-04-26T08:50:33.938Z,96689.54
2023-04-26T08:53:03.644Z,96694.66
2023-04-26T08:55:31.916Z,96692.86
2023-04-26T08:58:00.123Z,96692.30
2023-04-26T09:00:28.468Z,96694.29
2023-04-26T09:02:56.969Z,96694.89
2023-04-26T09:05:29.022Z,96693.39
2023-04-26T09:07:57.904Z,96698.53
2023-04-26T09:10:27.829Z,96699.81
2023-04-26T09:12:56.570Z,96699.00
2023-04-26T09:15:26.624Z,96704.87
2023-04-26T09:17:54.864Z,96701.48
2023-04-26T09:20:33.829Z,96703.90
2023-04-26T09:23:10.200Z,96704.14
2023-04-26T09:25:39.177Z,96704.50
2023-04-26T09:28:22.783Z,96701.63
2023-04-26T09:30:51.112Z,96705.55
2023-04-26T09:33:22.713Z,96707.73
2023-04-26T09:35:51.118Z,96710.41
2023-04-26T09:38:19.506Z,96713.36
2023-04-26T09:40:49.351Z,96720.12
2023-04-26T09:43:20.171Z,96730.10
2023-04-26T09:45:52.419Z,96732.10
2023-04-26T09:48:53.549Z,96735.30
2023-04-26T09:51:22.429Z,96735.26
2023-04-26T09:53:55.006Z,96738.74
2023-04-26T09:56:25.492Z,96735.75
2023-04-26T09:58:58.969Z,96738.46
2023-04-26T10:01:30.556Z,96734.95
2023-04-26T10:04:02.474Z,96742.06
2023-04-26T10:06:30.739Z,96741.89
2023-04-26T10:09:02.288Z,96740.52
2023-04-26T10:11:31.488Z,96742.85
2023-04-26T10:13:59.869Z,96747.65
2023-04-26T10:16:28.391Z,96746.30
2023-04-26T10:18:59.387Z,96741.77
2023-04-26T10:21:32.000Z,96747.20
2023-04-26T10:24:00.663Z,96747.90
2023-04-26T10:26:47.425Z,96750.29
2023-04-26T10:29:15.839Z,96756.41
2023-04-26T10:32:02.935Z,96751.67
2023-04-26T10:34:37.414Z,96750.66
2023-04-26T10:37:15.287Z,96749.69
2023-04-26T10:39:46.267Z,96750.75
2023-04-26T10:42:32.001Z,96751.95
2023-04-26T10:45:00.347Z,96748.31
2023-04-26T10:47:36.874Z,96742.99
2023-04-26T10:50:09.133Z,96743.23
2023-04-26T10:53:01.046Z,96738.38
2023-04-26T10:55:42.694Z,96738.89
2023-04-26T10:58:33.233Z,96740.41
2023-04-26T11:01:10.041Z,96740.94
2023-04-26T11:03:39.293Z,96740.56
2023-04-26T11:06:10.370Z,96745.83
2023-04-26T11:08:38.304Z,96750.35
2023-04-26T11:11:10.201Z,96748.52
2023-04-26T11:13:44.492Z,96749.95
2023-04-26T11:16:16.899Z,96748.97
2023-04-26T11:18:46.616Z,96745.45
2023-04-26T11:21:18.360Z,96745.23
2023-04-26T11:26:38.591Z,96744.03
2023-04-26T11:29:11.836Z,96749.15
2023-04-26T11:31:40.034Z,96754.92
2023-04-26T11:34:08.716Z,96758.88
2023-04-26T11:36:38.563Z,96759.58
2023-04-26T11:39:07.503Z,96762.64
2023-04-26T11:41:39.248Z,96759.90
2023-04-26T11:44:08.273Z,96762.91
2023-04-26T11:46:37.057Z,96763.06
2023-04-26T11:49:08.172Z,96761.81
2023-04-26T11:51:36.661Z,96766.38
2023-04-26T11:54:12.452Z,96767.40
2023-04-26T11:56:41.333Z,96770.15
2023-04-26T11:59:12.533Z,96769.91
2023-04-26T12:04:34.398Z,96769.71
2023-04-26T12:07:04.618Z,96774.52
2023-04-26T12:09:33.390Z,96768.52
2023-04-26T12:12:02.903Z,96769.23
2023-04-26T12:14:31.708Z,96773.29
2023-04-26T12:17:03.630Z,96776.72
2023-04-26T12:19:38.164Z,96780.36
2023-04-26T12:22:08.905Z,96783.27
2023-04-26T12:24:37.924Z,96781.22
2023-04-26T12:27:09.681Z,96783.41
2023-04-26T12:29:38.132Z,96783.86
2023-04-26T12:32:06.959Z,96787.70
2023-04-26T12:34:35.139Z,96789.58
2023-04-26T12:37:03.860Z,96780.58
2023-04-26T12:39:33.070Z,96790.27
2023-04-26T12:42:01.493Z,96790.52
2023-04-26T12:44:31.599Z,96790.35
2023-04-26T12:47:00.940Z,96794.02
2023-04-26T12:49:32.211Z,96798.05
2023-04-26T12:52:00.389Z,96798.13
2023-04-26T12:54:28.664Z,96792.61
2023-04-26T12:56:57.152Z,96808.92
2023-04-26T12:59:25.619Z,96812.13
2023-04-26T13:01:54.241Z,96811.44
2023-04-26T13:04:24.900Z,96815.02
2023-04-26T13:06:53.266Z,96817.30
2023-04-26T13:09:21.696Z,96819.55
2023-04-26T13:11:52.020Z,96822.38
2023-04-26T13:14:21.006Z,96820.34
2023-04-26T13:16:51.016Z,96826.39
2023-04-26T13:19:19.300Z,96824.02
2023-04-26T13:21:47.990Z,96826.75
2023-04-26T13:24:16.460Z,96829.95
2023-04-26T13:26:44.850Z,96831.05
2023-04-26T13:29:13.124Z,96831.05
2023-04-26T13:31:42.095Z,96837.43
2023-04-26T13:34:13.579Z,96840.55
2023-04-26T13:36:43.067Z,96839.59
2023-04-26T13:39:11.875Z,96841.11
2023-04-26T13:41:40.352Z,96837.70
2023-04-26T13:44:08.821Z,96845.59
2023-04-26T13:46:37.254Z,96843.29
2023-04-26T13:49:05.877Z,96839.64
2023-04-26T13:52:01.829Z,96843.02
2023-04-26T13:54:29.852Z,96845.68
2023-04-26T13:56:59.478Z,96847.23
2023-04-26T13:59:29.402Z,96844.91
2023-04-26T14:01:59.051Z,96847.68
2023-04-26T14:04:27.929Z,96856.12
2023-04-26T14:06:58.294Z,96855.33
2023-04-26T14:09:26.913Z,96854.30
2023-04-26T14:12:07.176Z,96856.93
2023-04-26T14:14:38.097Z,96857.92
2023-04-26T14:17:07.907Z,96857.98
2023-04-26T14:20:03.125Z,96856.18
2023-04-26T14:22:33.029Z,96860.42
2023-04-26T14:25:01.424Z,96865.33
2023-04-26T14:27:29.704Z,96869.55
2023-04-26T14:29:59.231Z,96873.91
2023-04-26T14:32:29.045Z,96879.88
2023-04-26T14:34:57.283Z,96881.75
2023-04-26T14:37:25.953Z,96883.35
2023-04-26T14:39:53.965Z,96887.37
2023-04-26T14:42:22.141Z,96893.39
2023-04-26T14:45:45.076Z,96892.06
2023-04-26T14:48:14.762Z,96897.21
2023-04-26T14:50:42.854Z,96902.90
2023-04-26T14:53:11.719Z,96907.00
2023-04-26T14:55:40.700Z,96906.13
2023-04-26T14:58:09.100Z,96910.33
2023-04-26T15:05:24.708Z,96917.03
2023-04-26T15:07:52.887Z,96924.02
2023-04-26T15:10:21.042Z,96923.88
2023-04-26T15:12:49.812Z,96927.06
2023-04-26T15:15:18.018Z,96931.52
2023-04-26T15:17:46.339Z,96936.14
2023-04-26T15:20:14.985Z,96936.94
2023-04-26T15:22:43.523Z,96941.27
2023-04-26T15:25:11.773Z,96946.55
2023-04-26T15:27:41.425Z,96945.89
2023-04-26T15:30:10.213Z,96942.29
2023-04-26T15:32:38.556Z,96948.55
2023-04-26T15:35:14.485Z,96950.52
2023-04-26T15:37:44.511Z,96954.69
2023-04-26T15:40:13.479Z,96950.18
2023-04-26T15:42:41.736Z,96954.04
2023-04-26T15:45:11.130Z,96956.07
2023-04-26T15:47:39.679Z,96959.04
2023-04-26T15:50:08.253Z,96961.63
2023-04-26T15:52:39.211Z,96965.02
2023-04-26T15:55:08.198Z,96967.42
2023-04-26T15:57:36.528Z,96966.96
2023-04-26T16:00:10.548Z,96968.23
2023-04-26T16:02:39.042Z,96967.22
2023-04-26T16:05:08.364Z,96967.97
2023-04-26T16:07:41.180Z,96970.16
2023-04-26T16:10:09.990Z,96974.80
2023-04-26T16:12:41.123Z,96979.29
2023-04-26T16:15:30.300Z,96984.70
2023-04-26T16:17:58.623Z,96991.11
2023-04-26T16:20:28.159Z,96995.79
2023-04-26T16:22:56.777Z,97001.71
2023-04-26T16:25:25.023Z,97003.23
2023-04-26T16:27:53.297Z,97008.95
2023-04-26T16:30:21.458Z,97013.34
2023-04-26T16:32:49.983Z,97016.65
2023-04-26T16:35:18.691Z,97021.14
2023-04-26T16:37:47.220Z,97020.75
2023-04-26T16:40:15.500Z,97025.95
2023-04-26T16:42:44.546Z,97030.33
2023-04-26T16:45:15.467Z,97029.38
2023-04-26T16:47:44.762Z,97035.52
2023-04-26T16:50:13.240Z,97035.58
2023-04-26T16:52:41.479Z,97042.63
2023-04-26T16:55:09.906Z,97046.34
2023-04-26T16:57:40.189Z,97047.40
2023-04-26T17:00:12.357Z,97049.45
2023-04-26T17:02:41.242Z,97055.75
2023-04-26T17:05:11.519Z,97062.91
2023-04-26T17:07:40.511Z,97064.63
2023-04-26T17:10:09.136Z,97065.81
2023-04-26T17:12:37.509Z,97076.42
2023-04-26T17:15:07.364Z,97080.80
2023-04-26T17:17:36.337Z,97079.98
2023-04-26T17:20:08.464Z,97081.46
2023-04-26T17:22:37.983Z,97083.73
2023-04-26T17:25:07.132Z,97088.27
2023-04-26T17:27:35.658Z,97094.59
2023-04-26T17:30:04.448Z,97098.05
2023-04-26T17:32:32.641Z,97107.81
2023-04-26T17:35:01.118Z,97112.23
2023-04-26T17:37:29.793Z,97115.27
2023-04-26T17:44:05.380Z,97121.39
2023-04-26T17:46:33.853Z,97125.92
2023-04-26T17:49:02.114Z,97124.61
2023-04-26T17:51:31.384Z,97127.11
2023-04-26T17:53:59.696Z,97137.94
2023-04-26T17:56:27.866Z,97141.37
2023-04-26T17:58:56.416Z,97142.48
2023-04-26T18:01:26.165Z,97149.51
2023-04-26T18:03:54.627Z,97155.16
2023-04-26T18:06:23.638Z,97157.96
2023-04-26T18:08:53.124Z,97161.52
2023-04-26T18:11:22.432Z,97164.30
2023-04-26T18:13:51.287Z,97170.20
2023-04-26T18:16:20.333Z,97172.06
2023-04-26T18:18:48.690Z,97172.23
2023-04-26T18:21:17.272Z,97177.89
2023-04-26T18:23:47.488Z,97181.27
2023-04-26T18:26:16.033Z,97183.58
2023-04-26T18:28:46.806Z,97185.02
2023-04-26T18:31:14.854Z,97187.40
2023-04-26T18:33:43.158Z,97190.27
2023-04-26T18:36:12.134Z,97190.25
2023-04-26T18:38:40.561Z,97189.84
2023-04-26T18:41:08.721Z,97189.63
2023-04-26T18:43:36.931Z,97193.47
2023-04-26T18:46:05.272Z,97195.27
2023-04-26T18:48:33.431Z,97197.38
2023-04-26T18:51:01.762Z,97202.24
2023-04-26T18:53:30.279Z,97203.52
2023-04-26T18:55:58.690Z,97206.46
2023-04-26T18:58:27.048Z,97210.52
2023-04-26T19:00:56.253Z,97215.13
2023-04-26T19:03:27.480Z,97220.81
2023-04-26T19:05:56.378Z,97221.34
2023-04-26T19:08:27.069Z,97224.09
2023-04-26T19:10:58.343Z,97225.17
2023-04-26T19:13:26.826Z,97227.44
2023-04-26T19:15:55.756Z,97230.38
2023-04-26T19:18:27.477Z,97238.14
2023-04-26T19:20:59.548Z,97239.79
2023-04-26T19:23:27.822Z,97239.56
2023-04-26T19:26:03.184Z,97247.52
2023-04-26T19:28:31.372Z,97247.48
2023-04-26T19:30:59.723Z,97244.31
2023-04-26T19:33:28.722Z,97243.95
2023-04-26T19:35:57.300Z,97240.20
2023-04-26T19:38:28.155Z,97246.95
2023-04-26T19:40:56.693Z,97248.11
2023-04-26T19:43:25.079Z,97251.65
2023-04-26T19:45:53.232Z,97253.61
2023-04-26T19:48:22.062Z,97250.77
2023-04-26T19:50:50.378Z,97250.02
2023-04-26T19:53:18.593Z,97249.09
2023-04-26T19:55:46.683Z,97251.25
2023-04-26T19:58:15.051Z,97249.16
2023-04-26T20:00:43.964Z,97248.60
2023-04-26T20:03:12.698Z,97246.64
2023-04-26T20:05:41.201Z,97249.45
2023-04-26T20:08:09.492Z,97249.34
2023-04-26T20:10:37.749Z,97248.92
2023-04-26T20:13:09.500Z,97243.24
2023-04-26T20:15:37.411Z,97243.18
2023-04-26T20:18:06.145Z,97250.46
2023-04-26T20:20:34.531Z,97255.05
2023-04-26T20:31:54.117Z,97262.20
2023-04-26T20:34:22.448Z,97267.05
2023-04-26T20:36:50.928Z,97271.55
2023-04-26T20:39:21.144Z,97273.92
2023-04-26T20:41:49.427Z,97276.42
2023-04-26T20:44:18.337Z,97283.04
2023-04-26T20:46:47.223Z,97286.23
2023-04-26T20:49:17.109Z,97289.44
2023-04-26T20:51:45.175Z,97292.69
2023-04-26T20:54:14.193Z,97296.83
2023-04-26T20:56:42.357Z,97296.59
2023-04-26T20:59:13.284Z,97303.80
2023-04-26T21:01:41.740Z,97306.58
2023-04-26T21:04:13.582Z,97305.27
2023-04-26T21:06:46.524Z,97308.02
2023-04-26T21:09:14.687Z,97310.11
2023-04-26T21:11:42.931Z,97312.80
2023-04-26T21:14:11.172Z,97315.78
2023-04-26T21:16:39.408Z,97313.10
2023-04-26T21:19:08.253Z,97313.33
2023-04-26T21:21:37.013Z,97314.08
2023-04-26T21:24:05.470Z,97316.05
2023-04-26T21:26:34.663Z,97313.25
2023-04-26T21:29:03.132Z,97314.30
2023-04-26T21:31:31.917Z,97316.67
2023-04-26T21:33:59.998Z,97320.72
2023-04-26T21:36:28.181Z,97323.78
2023-04-26T21:38:56.517Z,97325.11
2023-04-26T21:41:26.159Z,97328.50
2023-04-26T21:43:55.762Z,97329.84
2023-04-26T21:46:24.175Z,97332.40
2023-04-26T21:48:52.354Z,97331.11
2023-04-26T21:51:20.693Z,97327.11
2023-04-26T21:53:49.373Z,97330.94
2023-04-26T21:56:17.349Z,97333.02
2023-04-26T21:58:45.698Z,97334.48
2023-04-26T22:01:15.054Z,97337.20
2023-04-26T22:03:43.247Z,97339.29
2023-04-26T22:06:12.497Z,97343.14
2023-04-26T22:08:42.581Z,97343.48
2023-04-26T22:11:11.609Z,97342.86
2023-04-26T22:13:40.101Z,97341.15
2023-04-26T22:16:08.171Z,97340.80
2023-04-26T22:19:01.601Z,97334.48
2023-04-26T22:21:30.098Z,97342.08
2023-04-26T22:23:58.480Z,97349.81
2023-04-26T22:26:27.113Z,97352.78
2023-04-26T22:28:55.442Z,97350.36
2023-04-26T22:31:23.728Z,97356.01
2023-04-26T22:33:51.920Z,97355.69
2023-04-26T22:36:20.164Z,97358.67
2023-04-26T22:38:48.748Z,97357.91
2023-04-26T22:41:17.100Z,97357.59
2023-04-26T22:43:45.612Z,97366.23
2023-04-26T22:46:13.974Z,97370.67
2023-04-26T22:48:42.368Z,97370.84
2023-04-26T22:51:10.700Z,97370.30
2023-04-26T22:53:39.116Z,97375.90
2023-04-26T22:56:07.758Z,97378.66
2023-04-26T22:58:36.482Z,97385.79
2023-04-26T23:01:04.873Z,97385.65
2023-04-26T23:03:39.582Z,97382.77
2023-04-26T23:06:10.340Z,97387.71
2023-04-26T23:08:38.597Z,97384.05
2023-04-26T23:11:09.103Z,97384.27
2023-04-26T23:13:38.635Z,97387.63
2023-04-26T23:16:07.427Z,97385.20
2023-04-26T23:18:35.591Z,97381.27
2023-04-26T23:21:06.152Z,97381.83
2023-04-26T23:23:36.642Z,97382.41
2023-04-26T23:26:08.455Z,97383.23
2023-04-26T23:28:38.723Z,97388.35
2023-04-26T23:31:07.942Z,97390.03
2023-04-26T23:33:37.648Z,97389.41
2023-04-26T23:36:07.240Z,97392.53
2023-04-26T23:38:35.720Z,97389.77
2023-04-26T23:41:04.321Z,97389.66
2023-04-26T23:43:32.474Z,97391.72
2023-04-26T23:46:01.200Z,97395.91
2023-04-26T23:48:32.307Z,97400.38
2023-04-26T23:51:02.829Z,97400.45
2023-04-26T23:53:31.412Z,97402.10
2023-04-26T23:55:59.897Z,97406.08
2023-04-26T23:58:28.183Z,97401.38
